createdAt,value
2022-12-04T00:02:18.655Z,96322.03
2022-12-04T00:04:50.286Z,96327.31
2022-12-04T00:07:21.849Z,96333.69
2022-12-04T00:09:53.598Z,96331.28
2022-12-04T00:12:25.372Z,96340.28
2022-12-04T00:17:49.120Z,96340.28
2022-12-04T00:20:21.132Z,96342.91
2022-12-04T00:22:52.686Z,96329.69
2022-12-04T00:25:24.211Z,96339.50
2022-12-04T00:27:55.757Z,96330.75
2022-12-04T00:30:27.347Z,96322.81
2022-12-04T00:32:58.925Z,96322.78
2022-12-04T00:35:30.465Z,96314.38
2022-12-04T00:38:02.049Z,96307.50
2022-12-04T00:40:33.651Z,96305.66
2022-12-04T00:43:05.198Z,96314.59
2022-12-04T00:45:36.758Z,96329.28
2022-12-04T00:48:08.346Z,96330.19
2022-12-04T00:50:40.411Z,96319.88
2022-12-04T00:53:13.482Z,96323.31
2022-12-04T00:55:45.105Z,96328.34
2022-12-04T00:58:16.627Z,96325.13
2022-12-04T01:00:48.201Z,96309.84
2022-12-04T01:03:19.799Z,96301.03
2022-12-04T01:05:51.356Z,96302.00
2022-12-04T01:08:22.956Z,96304.28
2022-12-04T01:10:54.536Z,96300.13
2022-12-04T01:13:26.549Z,96298.81
2022-12-04T01:15:58.180Z,96294.97
2022-12-04T01:18:29.741Z,96300.72
2022-12-04T01:21:01.315Z,96308.19
2022-12-04T01:23:32.831Z,96306.06
2022-12-04T01:26:04.602Z,96308.19
2022-12-04T01:28:36.720Z,96320.34
2022-12-04T01:31:12.137Z,96334.34
2022-12-04T01:33:44.695Z,96330.09
2022-12-04T01:36:20.052Z,96312.19
2022-12-04T01:38:52.237Z,96321.63
2022-12-04T01:41:27.505Z,96324.25
2022-12-04T01:44:18.791Z,96314.84
2022-12-04T01:46:55.748Z,96320.16
2022-12-04T01:49:37.462Z,96306.94
2022-12-04T01:52:23.670Z,96306.13
2022-12-04T01:55:00.624Z,96310.63
2022-12-04T01:57:32.872Z,96305.38
2022-12-04T02:00:13.929Z,96302.72
2022-12-04T02:02:47.391Z,96308.28
2022-12-04T02:05:21.506Z,96304.31
2022-12-04T02:07:59.333Z,96300.91
2022-12-04T02:10:58.252Z,96284.22
2022-12-04T02:13:47.509Z,96291.63
2022-12-04T02:16:30.626Z,96301.13
2022-12-04T02:19:28.958Z,96303.81
2022-12-04T02:22:10.042Z,96294.00
2022-12-04T02:24:59.677Z,96296.34
2022-12-04T02:27:31.162Z,96291.63
2022-12-04T02:30:11.242Z,96301.88
2022-12-04T02:32:49.691Z,96300.50
2022-12-04T02:35:30.796Z,96284.09
2022-12-04T02:38:14.409Z,96285.22
2022-12-04T02:41:03.729Z,96284.84
2022-12-04T02:44:10.689Z,96280.41
2022-12-04T02:46:47.891Z,96290.50
2022-12-04T02:49:29.685Z,96296.06
2022-12-04T02:52:06.856Z,96298.22
2022-12-04T02:54:47.908Z,96307.72
2022-12-04T02:57:27.991Z,96314.91
2022-12-04T03:00:02.689Z,96313.59
2022-12-04T03:02:49.598Z,96323.09
2022-12-04T03:05:30.299Z,96320.19
2022-12-04T03:08:10.624Z,96316.75
2022-12-04T03:10:54.554Z,96318.84
2022-12-04T03:13:46.338Z,96318.34
2022-12-04T03:16:29.208Z,96314.09
2022-12-04T03:19:21.819Z,96312.19
2022-12-04T03:22:07.762Z,96321.78
2022-12-04T03:24:48.028Z,96323.38
2022-12-04T03:27:54.297Z,96323.34
2022-12-04T03:30:36.092Z,96312.81
2022-12-04T03:33:13.406Z,96321.19
2022-12-04T03:35:53.420Z,96315.31
2022-12-04T03:38:37.755Z,96311.72
2022-12-04T03:41:42.718Z,96310.16
2022-12-04T03:44:23.317Z,96315.69
2022-12-04T03:47:01.876Z,96327.81
2022-12-04T03:49:55.313Z,96313.56
2022-12-04T03:52:43.963Z,96313.81
2022-12-04T03:55:26.210Z,96317.22
2022-12-04T03:58:04.658Z,96306.38
2022-12-04T04:00:42.146Z,96309.81
2022-12-04T04:03:20.691Z,96310.06
2022-12-04T04:05:59.635Z,96312.16
2022-12-04T04:08:37.298Z,96315.13
2022-12-04T04:11:20.125Z,96315.69
2022-12-04T04:13:59.016Z,96316.13
2022-12-04T04:16:38.032Z,96316.84
2022-12-04T04:19:15.373Z,96322.75
2022-12-04T04:21:52.412Z,96319.13
2022-12-04T04:24:50.366Z,96313.59
2022-12-04T04:27:21.992Z,96319.13
2022-12-04T04:29:54.708Z,96313.06
2022-12-04T04:32:45.685Z,96318.63
2022-12-04T04:35:50.710Z,96322.56
2022-12-04T04:38:39.373Z,96318.59
2022-12-04T04:41:32.356Z,96330.44
2022-12-04T04:44:16.228Z,96329.13
2022-12-04T04:46:54.984Z,96325.44
2022-12-04T04:49:32.221Z,96332.59
2022-12-04T04:52:04.489Z,96334.16
2022-12-04T04:54:38.753Z,96338.38
2022-12-04T04:57:10.376Z,96339.94
2022-12-04T04:59:42.130Z,96344.19
2022-12-04T05:02:13.849Z,96347.06
2022-12-04T05:04:45.420Z,96347.94
2022-12-04T05:07:17.036Z,96352.38
2022-12-04T05:09:48.561Z,96359.72
2022-12-04T05:12:20.267Z,96358.72
2022-12-04T05:14:52.069Z,96366.19
2022-12-04T05:17:23.696Z,96349.19
2022-12-04T05:19:55.740Z,96354.03
2022-12-04T05:22:33.222Z,96350.03
2022-12-04T05:25:05.820Z,96357.66
2022-12-04T05:27:37.469Z,96355.59
2022-12-04T05:30:11.502Z,96354.56
2022-12-04T05:32:43.243Z,96345.84
2022-12-04T05:35:15.342Z,96342.91
2022-12-04T05:37:47.431Z,96343.16
2022-12-04T05:40:19.722Z,96344.75
2022-12-04T05:42:51.432Z,96348.72
2022-12-04T05:45:22.996Z,96345.56
2022-12-04T05:47:54.653Z,96345.56
2022-12-04T05:50:26.298Z,96343.19
2022-12-04T05:52:57.967Z,96343.97
2022-12-04T05:55:29.576Z,96340.00
2022-12-04T05:58:01.933Z,96337.38
2022-12-04T06:00:33.605Z,96333.91
2022-12-04T06:03:05.637Z,96344.78
2022-12-04T06:05:37.395Z,96340.28
2022-12-04T06:08:09.515Z,96345.28
2022-12-04T06:10:41.352Z,96338.44
2022-12-04T06:13:13.024Z,96333.41
2022-12-04T06:15:44.549Z,96337.38
2022-12-04T06:18:16.146Z,96336.28
2022-12-04T06:20:47.790Z,96333.34
2022-12-04T06:23:19.574Z,96336.28
2022-12-04T06:25:51.102Z,96328.94
2022-12-04T06:28:22.675Z,96331.53
2022-12-04T06:30:54.178Z,96336.06
2022-12-04T06:33:25.843Z,96324.94
2022-12-04T06:36:10.699Z,96329.38
2022-12-04T06:38:43.325Z,96338.28
2022-12-04T06:41:18.732Z,96331.97
2022-12-04T06:43:51.357Z,96336.25
2022-12-04T06:46:25.564Z,96329.59
2022-12-04T06:48:59.585Z,96335.66
2022-12-04T06:51:35.968Z,96330.72
2022-12-04T06:54:07.920Z,96318.22
2022-12-04T06:56:39.491Z,96327.81
2022-12-04T06:59:11.090Z,96317.81
2022-12-04T07:01:42.792Z,96320.19
2022-12-04T07:04:14.558Z,96322.84
2022-12-04T07:06:46.184Z,96324.41
2022-12-04T07:09:18.290Z,96322.31
2022-12-04T07:11:50.159Z,96329.97
2022-12-04T07:14:21.759Z,96326.50
2022-12-04T07:16:53.605Z,96332.88
2022-12-04T07:19:25.295Z,96341.59
2022-12-04T07:21:57.119Z,96333.91
2022-12-04T07:24:28.667Z,96336.84
2022-12-04T07:27:00.197Z,96338.66
2022-12-04T07:29:31.816Z,96338.66
2022-12-04T07:32:03.552Z,96351.03
2022-12-04T07:34:35.149Z,96347.38
2022-12-04T07:37:06.684Z,96347.63
2022-12-04T07:39:38.232Z,96358.50
2022-12-04T07:42:09.726Z,96356.63
2022-12-04T07:44:41.227Z,96358.97
2022-12-04T07:47:13.107Z,96359.75
2022-12-04T07:49:44.578Z,96349.44
2022-12-04T07:52:16.117Z,96363.22
2022-12-04T07:54:47.934Z,96367.94
2022-12-04T07:57:19.446Z,96367.72
2022-12-04T07:59:50.962Z,96362.75
2022-12-04T08:02:22.535Z,96355.88
2022-12-04T08:04:54.046Z,96359.84
2022-12-04T08:07:25.644Z,96365.66
2022-12-04T08:09:57.310Z,96368.56
2022-12-04T08:12:29.073Z,96351.66
2022-12-04T08:15:00.734Z,96364.59
2022-12-04T08:17:33.576Z,96356.66
2022-12-04T08:20:05.938Z,96359.31
2022-12-04T08:22:37.413Z,96359.31
2022-12-04T08:25:09.081Z,96358.25
2022-12-04T08:27:45.966Z,96361.41
2022-12-04T08:30:18.913Z,96368.56
2022-12-04T08:32:50.586Z,96355.03
2022-12-04T08:35:22.190Z,96361.41
2022-12-04T08:37:53.724Z,96355.03
2022-12-04T08:40:25.251Z,96353.66
2022-12-04T08:42:56.743Z,96352.53
2022-12-04T08:45:28.255Z,96361.13
2022-12-04T08:47:59.849Z,96365.25
2022-12-04T08:50:31.380Z,96358.44
2022-12-04T08:53:02.950Z,96359.22
2022-12-04T08:55:35.077Z,96366.25
2022-12-04T08:58:06.774Z,96368.69
2022-12-04T09:00:38.495Z,96368.41
2022-12-04T09:03:15.937Z,96374.91
2022-12-04T09:05:48.216Z,96377.22
2022-12-04T09:08:19.843Z,96372.91
2022-12-04T09:10:51.427Z,96381.59
2022-12-04T09:13:22.935Z,96377.53
2022-12-04T09:15:54.597Z,96377.50
2022-12-04T09:18:26.207Z,96381.25
2022-12-04T09:20:59.568Z,96385.34
2022-12-04T09:23:31.331Z,96383.00
2022-12-04T09:26:04.236Z,96381.41
2022-12-04T09:28:35.871Z,96387.09
2022-12-04T09:31:07.477Z,96391.91
2022-12-04T09:33:39.637Z,96389.63
2022-12-04T09:36:13.375Z,96389.56
2022-12-04T09:38:50.892Z,96384.50
2022-12-04T09:41:33.781Z,96384.25
2022-12-04T09:44:17.213Z,96384.69
2022-12-04T09:46:51.182Z,96383.84
2022-12-04T09:49:39.918Z,96378.31
2022-12-04T09:52:48.484Z,96378.91
2022-12-04T09:55:49.440Z,96372.00
2022-12-04T09:58:33.792Z,96374.75
2022-12-04T10:01:05.830Z,96373.47
2022-12-04T10:03:37.444Z,96365.41
2022-12-04T10:06:26.296Z,96363.72
2022-12-04T10:09:16.238Z,96363.41
2022-12-04T10:12:01.491Z,96363.44
2022-12-04T10:14:57.377Z,96365.47
2022-12-04T10:17:56.657Z,96360.66
2022-12-04T10:20:58.896Z,96368.44
2022-12-04T10:23:48.729Z,96357.03
2022-12-04T10:26:28.531Z,96354.16
2022-12-04T10:29:06.295Z,96358.19
2022-12-04T10:31:41.459Z,96363.16
2022-12-04T10:34:29.231Z,96355.13
2022-12-04T10:37:11.569Z,96361.56
2022-12-04T10:40:01.756Z,96363.06
2022-12-04T10:42:42.314Z,96361.03
2022-12-04T10:45:13.942Z,96352.69
2022-12-04T10:47:50.401Z,96355.28
2022-12-04T10:50:24.929Z,96351.53
2022-12-04T10:52:56.716Z,96359.22
2022-12-04T10:55:32.608Z,96362.88
2022-12-04T10:58:15.368Z,96367.19
2022-12-04T11:01:03.086Z,96362.38
2022-12-04T11:03:35.366Z,96356.44
2022-12-04T11:06:10.447Z,96360.34
2022-12-04T11:08:49.197Z,96349.44
2022-12-04T11:11:29.254Z,96349.38
2022-12-04T11:14:06.384Z,96362.13
2022-12-04T11:16:41.673Z,96363.41
2022-12-04T11:19:34.319Z,96359.09
2022-12-04T11:22:18.561Z,96365.72
2022-12-04T11:24:56.481Z,96365.09
2022-12-04T11:27:35.215Z,96357.88
2022-12-04T11:30:16.116Z,96361.88
2022-12-04T11:32:48.206Z,96345.00
2022-12-04T11:35:27.292Z,96347.59
2022-12-04T11:38:01.358Z,96346.13
2022-12-04T11:40:34.669Z,96338.25
2022-12-04T11:43:14.840Z,96337.53
2022-12-04T11:46:04.666Z,96355.34
2022-12-04T11:48:45.095Z,96363.94
2022-12-04T11:51:41.267Z,96366.88
2022-12-04T11:54:26.822Z,96362.69
2022-12-04T11:57:24.680Z,96359.69
2022-12-04T12:00:22.850Z,96357.66
2022-12-04T12:03:23.377Z,96345.84
2022-12-04T12:06:18.993Z,96344.91
2022-12-04T12:09:20.077Z,96350.16
2022-12-04T12:12:18.442Z,96342.13
2022-12-04T12:15:27.360Z,96335.22
2022-12-04T12:18:22.253Z,96324.28
2022-12-04T12:21:15.985Z,96326.41
2022-12-04T12:23:53.617Z,96326.38
2022-12-04T12:26:40.175Z,96312.84
2022-12-04T12:29:50.399Z,96323.06
2022-12-04T12:32:35.549Z,96307.94
2022-12-04T12:35:19.639Z,96299.69
2022-12-04T12:37:54.968Z,96280.81
2022-12-04T12:40:38.502Z,96277.97
2022-12-04T12:43:10.165Z,96269.16
2022-12-04T12:45:50.796Z,96269.75
2022-12-04T12:48:58.659Z,96282.13
2022-12-04T12:51:38.989Z,96268.56
2022-12-04T12:54:33.373Z,96269.00
2022-12-04T12:57:31.304Z,96269.06
2022-12-04T13:00:22.613Z,96273.34
2022-12-04T13:03:26.397Z,96268.25
2022-12-04T13:06:05.128Z,96257.97
2022-12-04T13:08:56.518Z,96253.19
2022-12-04T13:11:30.763Z,96243.84
2022-12-04T13:14:04.840Z,96242.94
2022-12-04T13:17:02.831Z,96242.06
2022-12-04T13:19:40.553Z,96239.22
2022-12-04T13:22:24.118Z,96235.84
2022-12-04T13:25:13.941Z,96232.50
2022-12-04T13:28:15.059Z,96232.09
2022-12-04T13:31:08.466Z,96230.97
2022-12-04T13:33:49.329Z,96241.03
2022-12-04T13:36:53.422Z,96251.69
2022-12-04T13:39:40.059Z,96261.06
2022-12-04T13:42:37.649Z,96256.69
2022-12-04T13:45:27.344Z,96257.38
2022-12-04T13:48:03.809Z,96255.72
2022-12-04T13:50:39.515Z,96254.38
2022-12-04T13:53:34.756Z,96277.31
2022-12-04T13:56:23.665Z,96274.28
2022-12-04T13:59:33.928Z,96277.19
2022-12-04T14:02:29.859Z,96276.56
2022-12-04T14:05:04.271Z,96270.00
2022-12-04T14:07:42.817Z,96263.97
2022-12-04T14:10:14.463Z,96273.88
2022-12-04T14:13:02.072Z,96263.94
2022-12-04T14:15:37.135Z,96262.25
2022-12-04T14:18:11.393Z,96267.50
2022-12-04T14:20:44.547Z,96269.41
2022-12-04T14:23:16.296Z,96253.28
2022-12-04T14:25:48.826Z,96250.34
2022-12-04T14:28:42.013Z,96257.56
2022-12-04T14:31:25.739Z,96252.31
2022-12-04T14:34:23.599Z,96238.38
2022-12-04T14:36:57.896Z,96239.16
2022-12-04T14:39:37.520Z,96243.28
2022-12-04T14:42:33.031Z,96244.66
2022-12-04T14:45:32.548Z,96251.00
2022-12-04T14:48:17.418Z,96259.50
2022-12-04T14:50:57.552Z,96267.66
2022-12-04T14:53:40.248Z,96265.88
2022-12-04T14:56:23.476Z,96265.97
2022-12-04T14:58:55.314Z,96262.41
2022-12-04T15:01:36.315Z,96263.66
2022-12-04T15:04:22.214Z,96270.38
2022-12-04T15:07:00.001Z,96282.00
2022-12-04T15:09:33.252Z,96270.91
2022-12-04T15:12:25.149Z,96271.19
2022-12-04T15:15:02.712Z,96274.66
2022-12-04T15:17:34.280Z,96273.00
2022-12-04T15:20:17.885Z,96281.84
2022-12-04T15:22:49.960Z,96291.97
2022-12-04T15:25:26.945Z,96290.47
2022-12-04T15:28:21.448Z,96294.75
2022-12-04T15:30:56.144Z,96302.28
2022-12-04T15:33:34.330Z,96307.41
2022-12-04T15:36:13.008Z,96312.75
2022-12-04T15:38:48.593Z,96323.25
2022-12-04T15:41:33.048Z,96318.72
2022-12-04T15:44:49.590Z,96318.03
2022-12-04T15:47:24.644Z,96329.31
2022-12-04T15:50:27.340Z,96331.53
2022-12-04T15:52:58.846Z,96332.06
2022-12-04T15:55:36.552Z,96340.38
2022-12-04T15:58:26.759Z,96333.09
2022-12-04T16:01:10.318Z,96339.66
2022-12-04T16:03:41.948Z,96336.81
2022-12-04T16:06:15.728Z,96335.00
2022-12-04T16:08:52.117Z,96334.84
2022-12-04T16:11:37.027Z,96329.59
2022-12-04T16:14:08.566Z,96339.72
2022-12-04T16:16:44.485Z,96329.41
2022-12-04T16:19:29.303Z,96316.66
2022-12-04T16:22:03.807Z,96321.25
2022-12-04T16:24:35.342Z,96319.31
2022-12-04T16:27:15.746Z,96326.66
2022-12-04T16:29:47.239Z,96321.91
2022-12-04T16:32:21.722Z,96324.63
2022-12-04T16:34:53.404Z,96344.91
2022-12-04T16:37:27.353Z,96344.31
2022-12-04T16:39:59.130Z,96346.06
2022-12-04T16:42:30.729Z,96355.38
2022-12-04T16:45:02.700Z,96365.69
2022-12-04T16:47:34.210Z,96374.59
2022-12-04T16:50:06.560Z,96376.34
2022-12-04T16:52:38.051Z,96379.75
2022-12-04T16:55:34.179Z,96400.38
2022-12-04T16:58:06.523Z,96411.69
2022-12-04T17:00:39.071Z,96417.38
2022-12-04T17:03:32.075Z,96411.69
2022-12-04T17:06:03.693Z,96414.59
2022-12-04T17:08:35.220Z,96426.88
2022-12-04T17:11:06.922Z,96440.16
2022-12-04T17:13:38.486Z,96440.50
2022-12-04T17:16:14.681Z,96440.47
2022-12-04T17:18:46.708Z,96435.47
2022-12-04T17:21:18.246Z,96433.31
2022-12-04T17:23:49.804Z,96438.84
2022-12-04T17:26:21.544Z,96446.06
2022-12-04T17:28:53.751Z,96449.06
2022-12-04T17:31:27.026Z,96456.94
2022-12-04T17:33:58.527Z,96455.00
2022-12-04T17:36:30.061Z,96453.22
2022-12-04T17:39:01.712Z,96455.50
2022-12-04T17:41:33.501Z,96445.75
2022-12-04T17:44:05.026Z,96440.41
2022-12-04T17:46:36.646Z,96440.50
2022-12-04T17:49:08.303Z,96447.78
2022-12-04T17:51:40.163Z,96439.81
2022-12-04T17:54:12.384Z,96440.03
2022-12-04T17:56:48.723Z,96445.47
2022-12-04T17:59:21.928Z,96446.75
2022-12-04T18:01:53.510Z,96449.94
2022-12-04T18:04:25.102Z,96451.63
2022-12-04T18:06:56.655Z,96459.63
2022-12-04T18:09:28.402Z,96461.03
2022-12-04T18:12:00.537Z,96458.22
2022-12-04T18:14:32.224Z,96458.25
2022-12-04T18:17:04.487Z,96442.09
2022-12-04T18:19:36.486Z,96432.78
2022-12-04T18:22:08.063Z,96431.25
2022-12-04T18:24:39.789Z,96433.88
2022-12-04T18:27:11.688Z,96427.78
2022-12-04T18:29:43.330Z,96433.09
2022-12-04T18:32:14.979Z,96453.47
2022-12-04T18:34:46.731Z,96469.84
2022-12-04T18:37:18.492Z,96486.19
2022-12-04T18:39:50.136Z,96489.50
2022-12-04T18:42:21.688Z,96486.94
2022-12-04T18:44:53.367Z,96500.53
2022-12-04T18:47:25.054Z,96513.16
2022-12-04T18:49:56.945Z,96500.84
2022-12-04T18:52:28.724Z,96496.25
2022-12-04T18:55:00.355Z,96483.31
2022-12-04T18:57:32.009Z,96492.13
2022-12-04T19:00:05.026Z,96500.06
2022-12-04T19:02:36.653Z,96512.16
2022-12-04T19:05:08.538Z,96510.31
2022-12-04T19:07:40.116Z,96507.63
2022-12-04T19:10:12.023Z,96502.53
2022-12-04T19:12:43.665Z,96498.47
2022-12-04T19:15:15.255Z,96501.75
2022-12-04T19:17:48.267Z,96513.72
2022-12-04T19:20:19.843Z,96533.16
2022-12-04T19:22:52.368Z,96533.66
2022-12-04T19:25:23.870Z,96537.13
2022-12-04T19:27:56.202Z,96555.03
2022-12-04T19:30:28.007Z,96569.75
2022-12-04T19:32:59.926Z,96567.09
2022-12-04T19:35:31.635Z,96566.00
2022-12-04T19:38:03.558Z,96571.72
2022-12-04T19:40:35.411Z,96570.78
2022-12-04T19:43:07.199Z,96567.75
2022-12-04T19:45:38.922Z,96572.72
2022-12-04T19:48:10.755Z,96566.31
2022-12-04T19:50:42.394Z,96562.06
2022-12-04T19:53:14.173Z,96562.97
2022-12-04T19:55:45.868Z,96569.28
2022-12-04T19:58:17.597Z,96569.47
2022-12-04T20:00:49.225Z,96569.63
2022-12-04T20:03:20.957Z,96573.31
2022-12-04T20:05:52.662Z,96571.88
2022-12-04T20:08:24.209Z,96569.66
2022-12-04T20:10:55.915Z,96563.81
2022-12-04T20:13:27.553Z,96570.03
2022-12-04T20:16:04.262Z,96569.63
2022-12-04T20:18:37.563Z,96569.84
2022-12-04T20:21:11.309Z,96569.22
2022-12-04T20:23:46.438Z,96566.81
2022-12-04T20:26:20.793Z,96572.84
2022-12-04T20:28:55.960Z,96579.78
2022-12-04T20:31:37.052Z,96593.06
2022-12-04T20:34:13.011Z,96590.31
2022-12-04T20:36:47.423Z,96598.75
2022-12-04T20:39:20.373Z,96602.97
2022-12-04T20:41:52.120Z,96617.00
2022-12-04T20:44:23.936Z,96635.00
2022-12-04T20:46:55.836Z,96646.75
2022-12-04T20:49:27.586Z,96648.97
2022-12-04T20:51:59.332Z,96651.94
2022-12-04T20:54:31.131Z,96661.69
2022-12-04T20:57:02.856Z,96671.56
2022-12-04T20:59:34.622Z,96679.28
2022-12-04T21:02:06.544Z,96677.03
2022-12-04T21:04:38.629Z,96693.84
2022-12-04T21:07:10.532Z,96696.00
2022-12-04T21:09:42.300Z,96703.75
2022-12-04T21:12:14.174Z,96700.81
2022-12-04T21:14:45.965Z,96716.41
2022-12-04T21:17:19.473Z,96711.94
2022-12-04T21:19:51.272Z,96715.97
2022-12-04T21:22:22.920Z,96718.25
2022-12-04T21:24:54.597Z,96704.31
2022-12-04T21:27:26.417Z,96713.88
2022-12-04T21:29:58.318Z,96695.19
2022-12-04T21:32:30.153Z,96701.34
2022-12-04T21:35:01.811Z,96690.47
2022-12-04T21:37:33.517Z,96698.16
2022-12-04T21:40:05.886Z,96704.78
2022-12-04T21:42:37.575Z,96697.38
2022-12-04T21:45:09.457Z,96698.16
2022-12-04T21:47:41.091Z,96700.28
2022-12-04T21:50:12.865Z,96699.22
2022-12-04T21:52:44.562Z,96707.19
2022-12-04T21:55:16.172Z,96688.38
2022-12-04T21:57:48.126Z,96689.69
2022-12-04T22:00:19.867Z,96687.78
2022-12-04T22:02:53.599Z,96697.09
2022-12-04T22:05:25.231Z,96691.81
2022-12-04T22:07:56.884Z,96690.44
2022-12-04T22:10:28.619Z,96692.06
2022-12-04T22:13:00.352Z,96702.94
2022-12-04T22:15:36.157Z,96710.34
2022-12-04T22:18:12.844Z,96703.13
2022-12-04T22:20:44.342Z,96705.03
2022-12-04T22:23:16.047Z,96718.56
2022-12-04T22:25:47.996Z,96716.44
2022-12-04T22:28:19.540Z,96712.97
2022-12-04T22:30:51.218Z,96721.47
2022-12-04T22:33:22.825Z,96720.41
2022-12-04T22:35:54.382Z,96725.41
2022-12-04T22:38:25.948Z,96724.03
2022-12-04T22:41:01.680Z,96736.31
2022-12-04T22:43:40.558Z,96734.94
2022-12-04T22:46:13.496Z,96734.97
2022-12-04T22:48:46.047Z,96738.97
2022-12-04T22:51:20.878Z,96746.88
2022-12-04T22:53:54.818Z,96749.25
2022-12-04T22:56:31.827Z,96746.09
2022-12-04T22:59:03.401Z,96745.28
2022-12-04T23:01:35.066Z,96741.78
2022-12-04T23:04:06.699Z,96731.28
2022-12-04T23:06:38.270Z,96738.69
2022-12-04T23:09:15.050Z,96744.25
2022-12-04T23:11:52.387Z,96749.56
2022-12-04T23:14:24.385Z,96748.97
2022-12-04T23:16:56.598Z,96754.47
2022-12-04T23:19:28.213Z,96743.09
2022-12-04T23:21:59.732Z,96725.16
2022-12-04T23:24:31.264Z,96737.66
2022-12-04T23:27:02.755Z,96734.97
2022-12-04T23:29:52.898Z,96732.84
2022-12-04T23:32:25.207Z,96738.13
2022-12-04T23:34:56.779Z,96746.09
2022-12-04T23:37:28.264Z,96746.34
2022-12-04T23:40:00.010Z,96737.41
2022-12-04T23:42:33.261Z,96746.09
2022-12-04T23:45:05.258Z,96751.16
2022-12-04T23:47:36.893Z,96750.63
2022-12-04T23:50:08.574Z,96751.13
2022-12-04T23:52:40.101Z,96762.31
2022-12-04T23:55:11.700Z,96752.75
2022-12-04T23:57:43.317Z,96742.63
